createdAt,value
2023-05-21T00:00:33.299Z,16.40
2023-05-21T00:03:05.121Z,17.02
2023-05-21T00:05:34.534Z,17.33
2023-05-21T00:08:04.063Z,17.33
2023-05-21T00:10:30.724Z,16.35
2023-05-21T00:12:57.287Z,15.43
2023-05-21T00:15:23.913Z,17.13
2023-05-21T00:17:52.768Z,17.20
2023-05-21T00:20:19.421Z,15.90
2023-05-21T00:22:46.040Z,17.70
2023-05-21T00:25:12.802Z,15.40
2023-05-21T00:27:41.648Z,15.82
2023-05-21T00:30:08.604Z,15.15
2023-05-21T00:32:37.765Z,17.10
2023-05-21T00:35:07.152Z,16.88
2023-05-21T00:37:34.402Z,16.30
2023-05-21T00:40:06.647Z,18.10
2023-05-21T00:42:39.950Z,15.32
2023-05-21T00:45:09.512Z,15.48
2023-05-21T00:47:36.287Z,14.90
2023-05-21T00:50:06.697Z,13.23
2023-05-21T00:52:41.489Z,14.32
2023-05-21T00:55:09.389Z,15.10
2023-05-21T00:57:37.258Z,15.05
2023-05-21T01:00:07.523Z,13.98
2023-05-21T01:02:37.452Z,15.10
2023-05-21T01:05:07.668Z,14.80
2023-05-21T01:07:36.534Z,17.55
2023-05-21T01:10:05.656Z,16.05
2023-05-21T01:12:34.093Z,18.00
2023-05-21T01:15:03.244Z,15.03
2023-05-21T01:17:34.188Z,17.60
2023-05-21T01:20:09.154Z,14.85
2023-05-21T01:22:39.617Z,15.63
2023-05-21T01:25:08.977Z,16.58
2023-05-21T01:27:37.690Z,17.97
2023-05-21T01:30:07.345Z,17.83
2023-05-21T01:32:50.608Z,16.63
2023-05-21T01:35:30.275Z,16.23
2023-05-21T01:38:04.847Z,18.40
2023-05-21T01:40:43.396Z,16.50
2023-05-21T01:43:11.618Z,17.65
2023-05-21T01:45:42.219Z,19.48
2023-05-21T01:48:12.658Z,18.15
2023-05-21T01:50:47.050Z,15.23
2023-05-21T01:53:13.943Z,18.67
2023-05-21T01:55:42.088Z,16.88
2023-05-21T01:58:08.919Z,17.60
2023-05-21T02:00:35.946Z,16.30
2023-05-21T02:03:02.653Z,19.73
2023-05-21T02:05:29.407Z,15.40
2023-05-21T02:08:00.014Z,19.08
2023-05-21T02:10:29.051Z,17.48
2023-05-21T02:12:55.724Z,18.73
2023-05-21T02:15:22.569Z,17.13
2023-05-21T02:17:51.410Z,17.57
2023-05-21T02:20:22.348Z,16.88
2023-05-21T02:22:51.304Z,18.38
2023-05-21T02:25:19.874Z,17.33
2023-05-21T02:27:54.110Z,17.30
2023-05-21T02:30:23.147Z,19.47
2023-05-21T02:32:52.754Z,17.65
2023-05-21T02:35:19.434Z,18.25
2023-05-21T02:37:46.023Z,15.82
2023-05-21T02:40:13.187Z,17.33
2023-05-21T02:42:42.369Z,18.67
2023-05-21T02:45:12.971Z,18.52
2023-05-21T02:47:39.668Z,18.45
2023-05-21T02:50:07.957Z,17.65
2023-05-21T02:52:37.280Z,16.58
2023-05-21T02:55:04.196Z,16.83
2023-05-21T02:57:30.822Z,19.73
2023-05-21T02:59:57.509Z,18.27
2023-05-21T03:02:26.474Z,18.13
2023-05-21T03:04:55.620Z,23.17
2023-05-21T03:07:22.551Z,21.57
2023-05-21T03:09:49.172Z,16.83
2023-05-21T03:12:15.852Z,17.17
2023-05-21T03:14:46.535Z,18.88
2023-05-21T03:17:17.146Z,18.70
2023-05-21T03:19:46.445Z,18.77
2023-05-21T03:22:13.069Z,20.08
2023-05-21T03:24:42.220Z,20.92
2023-05-21T03:27:08.822Z,18.63
2023-05-21T03:29:36.215Z,17.58
2023-05-21T03:32:05.430Z,17.60
2023-05-21T03:34:34.527Z,18.38
2023-05-21T03:37:03.424Z,19.75
2023-05-21T03:39:30.082Z,18.73
2023-05-21T03:41:56.710Z,19.08
2023-05-21T03:44:23.384Z,20.43
2023-05-21T03:46:52.946Z,18.17
2023-05-21T03:49:20.577Z,19.52
2023-05-21T03:51:47.163Z,17.85
2023-05-21T03:54:16.302Z,18.13
2023-05-21T03:56:45.090Z,17.43
2023-05-21T03:59:11.680Z,20.42
2023-05-21T04:01:39.182Z,20.48
2023-05-21T04:04:08.351Z,20.35
2023-05-21T04:06:38.265Z,19.35
2023-05-21T04:09:07.159Z,18.70
2023-05-21T04:11:33.783Z,16.90
2023-05-21T04:14:01.270Z,17.95
2023-05-21T04:16:27.955Z,20.08
2023-05-21T04:18:55.565Z,20.92
2023-05-21T04:21:26.748Z,20.23
2023-05-21T04:23:54.170Z,22.70
2023-05-21T04:26:25.325Z,17.10
2023-05-21T04:28:55.525Z,19.60
2023-05-21T04:31:24.290Z,16.42
2023-05-21T04:33:51.503Z,17.23
2023-05-21T04:36:18.249Z,19.60
2023-05-21T04:38:49.861Z,20.92
2023-05-21T04:41:18.983Z,21.08
2023-05-21T04:43:47.957Z,23.10
2023-05-21T04:46:14.874Z,23.37
2023-05-21T04:48:45.126Z,24.25
2023-05-21T04:51:15.102Z,22.95
2023-05-21T04:53:48.128Z,20.52
2023-05-21T04:56:14.726Z,21.40
2023-05-21T04:58:43.502Z,23.70
2023-05-21T05:01:12.550Z,23.33
2023-05-21T05:03:39.293Z,20.52
2023-05-21T05:06:07.822Z,21.02
2023-05-21T05:08:37.612Z,22.08
2023-05-21T05:11:04.294Z,22.13
2023-05-21T05:13:34.526Z,20.35
2023-05-21T05:16:01.631Z,22.60
2023-05-21T05:18:30.611Z,20.83
2023-05-21T05:20:59.439Z,25.73
2023-05-21T05:23:28.615Z,25.83
2023-05-21T05:25:55.448Z,32.15
2023-05-21T05:28:22.086Z,32.30
2023-05-21T05:30:48.704Z,30.90
2023-05-21T05:33:15.317Z,28.45
2023-05-21T05:35:44.299Z,32.30
2023-05-21T05:38:11.025Z,32.55
2023-05-21T05:40:37.644Z,21.60
2023-05-21T05:43:04.259Z,22.33
2023-05-21T05:45:30.847Z,30.15
2023-05-21T05:47:57.540Z,21.63
2023-05-21T05:50:24.240Z,20.25
2023-05-21T05:52:51.388Z,37.92
2023-05-21T05:55:18.052Z,34.85
2023-05-21T05:57:45.303Z,19.75
2023-05-21T06:00:15.316Z,19.53
2023-05-21T06:02:45.216Z,19.73
2023-05-21T06:05:14.152Z,26.75
2023-05-21T06:07:43.242Z,19.17
2023-05-21T06:10:14.815Z,21.95
2023-05-21T06:12:46.257Z,21.83
2023-05-21T06:15:16.590Z,21.88
2023-05-21T06:17:45.507Z,22.58
2023-05-21T06:20:16.450Z,21.25
2023-05-21T06:22:45.414Z,20.52
2023-05-21T06:25:12.053Z,23.60
2023-05-21T06:27:38.941Z,21.98
2023-05-21T06:30:06.437Z,20.92
2023-05-21T06:32:35.342Z,21.15
2023-05-21T06:35:02.052Z,19.77
2023-05-21T06:37:28.611Z,22.67
2023-05-21T06:39:55.183Z,23.25
2023-05-21T06:42:21.792Z,20.38
2023-05-21T06:44:50.768Z,21.33
2023-05-21T06:47:22.583Z,22.85
2023-05-21T06:49:52.704Z,21.30
2023-05-21T06:52:19.303Z,22.20
2023-05-21T06:54:50.748Z,22.50
2023-05-21T06:57:17.466Z,20.88
2023-05-21T06:59:46.370Z,21.02
2023-05-21T07:02:13.039Z,21.57
2023-05-21T07:04:42.044Z,19.27
2023-05-21T07:07:08.793Z,20.70
2023-05-21T07:09:35.413Z,21.00
2023-05-21T07:12:02.247Z,21.55
2023-05-21T07:14:31.926Z,21.37
2023-05-21T07:16:58.580Z,20.10
2023-05-21T07:19:25.360Z,19.85
2023-05-21T07:21:52.050Z,21.63
2023-05-21T07:24:18.757Z,19.27
2023-05-21T07:26:45.472Z,20.27
2023-05-21T07:29:14.416Z,20.83
2023-05-21T07:31:41.037Z,23.58
2023-05-21T07:34:07.683Z,19.85
2023-05-21T07:36:34.349Z,19.80
2023-05-21T07:39:01.056Z,18.97
2023-05-21T07:41:27.659Z,17.55
2023-05-21T07:43:56.753Z,18.67
2023-05-21T07:46:25.844Z,20.77
2023-05-21T07:48:55.632Z,19.40
2023-05-21T07:51:22.232Z,20.00
2023-05-21T07:53:48.860Z,19.98
2023-05-21T07:56:15.573Z,21.38
2023-05-21T07:58:44.460Z,18.33
2023-05-21T08:01:13.506Z,19.23
2023-05-21T08:03:40.655Z,18.63
2023-05-21T08:06:07.636Z,18.33
2023-05-21T08:08:36.600Z,18.85
2023-05-21T08:11:05.492Z,19.65
2023-05-21T08:13:32.119Z,18.33
2023-05-21T08:16:01.757Z,18.47
2023-05-21T08:18:30.783Z,18.88
2023-05-21T08:20:57.566Z,19.70
2023-05-21T08:23:27.299Z,20.20
2023-05-21T08:25:53.982Z,19.83
2023-05-21T08:28:23.303Z,19.03
2023-05-21T08:30:54.484Z,18.35
2023-05-21T08:33:21.485Z,19.38
2023-05-21T08:35:55.689Z,21.27
2023-05-21T08:38:22.279Z,18.48
2023-05-21T08:40:54.181Z,20.30
2023-05-21T08:43:24.852Z,19.08
2023-05-21T08:45:56.176Z,20.27
2023-05-21T08:48:24.058Z,21.65
2023-05-21T08:50:52.170Z,20.38
2023-05-21T08:53:28.295Z,19.47
2023-05-21T08:55:57.190Z,19.92
2023-05-21T08:58:26.241Z,20.58
2023-05-21T09:00:56.462Z,19.65
2023-05-21T09:03:24.294Z,18.77
2023-05-21T09:05:53.873Z,19.43
2023-05-21T09:08:29.821Z,18.88
2023-05-21T09:10:56.671Z,20.15
2023-05-21T09:13:25.481Z,16.80
2023-05-21T09:15:52.197Z,17.75
2023-05-21T09:18:18.817Z,17.03
2023-05-21T09:20:45.831Z,18.90
2023-05-21T09:23:16.989Z,17.67
2023-05-21T09:25:49.657Z,20.75
2023-05-21T09:28:17.357Z,30.00
2023-05-21T09:30:48.047Z,18.73
2023-05-21T09:33:30.002Z,19.60
2023-05-21T09:36:02.141Z,19.40
2023-05-21T09:38:33.656Z,19.58
2023-05-21T09:41:04.753Z,19.20
2023-05-21T09:43:31.435Z,20.23
2023-05-21T09:46:02.010Z,21.98
2023-05-21T09:48:43.756Z,18.35
2023-05-21T09:51:16.059Z,20.48
2023-05-21T09:53:44.566Z,19.75
2023-05-21T09:56:11.379Z,19.83
2023-05-21T09:58:41.379Z,20.83
2023-05-21T10:01:11.156Z,18.10
2023-05-21T10:03:44.615Z,17.05
2023-05-21T10:06:15.046Z,16.98
2023-05-21T10:08:45.564Z,17.70
2023-05-21T10:11:12.412Z,16.90
2023-05-21T10:13:45.217Z,16.42
2023-05-21T10:16:15.758Z,17.20
2023-05-21T10:18:42.787Z,15.88
2023-05-21T10:21:11.969Z,14.53
2023-05-21T10:23:39.533Z,15.18
2023-05-21T10:26:07.109Z,16.15
2023-05-21T10:28:34.148Z,16.15
2023-05-21T10:31:03.534Z,15.10
2023-05-21T10:33:30.633Z,14.10
2023-05-21T10:35:58.691Z,14.52
2023-05-21T10:38:25.807Z,15.88
2023-05-21T10:40:55.876Z,16.08
2023-05-21T10:43:31.432Z,16.33
2023-05-21T10:46:41.302Z,14.40
2023-05-21T10:49:19.273Z,14.52
2023-05-21T10:52:04.289Z,15.95
2023-05-21T10:54:41.968Z,13.55
2023-05-21T10:57:17.588Z,12.88
2023-05-21T10:59:47.001Z,12.70
2023-05-21T11:02:19.878Z,14.05
2023-05-21T11:04:57.866Z,12.27
2023-05-21T11:07:51.160Z,12.60
2023-05-21T11:10:37.701Z,12.40
2023-05-21T11:13:15.444Z,10.93
2023-05-21T11:16:05.198Z,11.57
2023-05-21T11:18:38.111Z,10.13
2023-05-21T11:21:14.753Z,10.23
2023-05-21T11:23:54.161Z,10.73
2023-05-21T11:26:22.819Z,10.77
2023-05-21T11:29:04.508Z,9.65
2023-05-21T11:31:38.904Z,11.00
2023-05-21T11:34:28.598Z,11.68
2023-05-21T11:37:20.802Z,10.90
2023-05-21T11:39:48.371Z,13.87
2023-05-21T11:42:29.537Z,11.80
2023-05-21T11:45:00.695Z,10.80
2023-05-21T11:47:28.893Z,10.48
2023-05-21T11:49:57.203Z,9.52
2023-05-21T11:52:30.865Z,10.63
2023-05-21T11:54:58.390Z,10.65
2023-05-21T11:57:33.054Z,11.55
2023-05-21T12:00:01.439Z,13.23
2023-05-21T12:02:32.562Z,12.07
2023-05-21T12:05:00.530Z,11.07
2023-05-21T12:07:32.865Z,10.65
2023-05-21T12:10:02.929Z,10.77
2023-05-21T12:12:42.127Z,10.55
2023-05-21T12:15:20.051Z,10.02
2023-05-21T12:17:52.791Z,9.87
2023-05-21T12:20:20.147Z,10.90
2023-05-21T12:22:52.971Z,10.30
2023-05-21T12:25:23.116Z,8.90
2023-05-21T12:27:52.822Z,9.98
2023-05-21T12:30:20.056Z,9.90
2023-05-21T12:32:46.704Z,9.55
2023-05-21T12:35:24.566Z,10.57
2023-05-21T12:37:51.485Z,9.40
2023-05-21T12:40:18.709Z,10.80
2023-05-21T12:42:45.598Z,9.33
2023-05-21T12:45:12.785Z,9.77
2023-05-21T12:47:39.435Z,9.43
2023-05-21T12:50:12.350Z,8.95
2023-05-21T12:52:44.389Z,9.43
2023-05-21T12:55:13.817Z,10.13
2023-05-21T12:57:44.005Z,9.75
2023-05-21T13:00:11.365Z,10.35
2023-05-21T13:02:42.987Z,10.13
2023-05-21T13:05:18.181Z,10.15
2023-05-21T13:07:51.650Z,8.57
2023-05-21T13:10:20.536Z,9.02
2023-05-21T13:12:49.487Z,10.18
2023-05-21T13:15:18.544Z,10.52
2023-05-21T13:17:45.172Z,9.75
2023-05-21T13:20:26.269Z,9.83
2023-05-21T13:23:01.219Z,9.65
2023-05-21T13:25:32.795Z,10.80
2023-05-21T13:28:06.773Z,9.95
2023-05-21T13:30:36.529Z,8.55
2023-05-21T13:33:06.478Z,11.43
2023-05-21T13:35:34.657Z,8.93
2023-05-21T13:38:01.319Z,8.18
2023-05-21T13:40:29.977Z,10.13
2023-05-21T13:42:59.195Z,9.40
2023-05-21T13:45:29.278Z,8.10
2023-05-21T13:47:56.490Z,8.55
2023-05-21T13:50:23.248Z,8.95
2023-05-21T13:52:49.903Z,8.73
2023-05-21T13:55:18.957Z,10.85
2023-05-21T13:57:46.300Z,9.67
2023-05-21T14:00:15.434Z,9.68
2023-05-21T14:02:43.549Z,8.32
2023-05-21T14:05:13.099Z,8.98
2023-05-21T14:07:40.124Z,10.02
2023-05-21T14:10:07.189Z,9.57
2023-05-21T14:12:36.488Z,10.90
2023-05-21T14:15:03.245Z,9.30
2023-05-21T14:17:29.868Z,8.02
2023-05-21T14:19:58.946Z,8.73
2023-05-21T14:22:27.897Z,8.50
2023-05-21T14:24:54.490Z,8.88
2023-05-21T14:27:21.099Z,9.18
2023-05-21T14:29:50.212Z,8.27
2023-05-21T14:32:18.419Z,7.35
2023-05-21T14:34:49.902Z,9.37
2023-05-21T14:37:16.535Z,7.65
2023-05-21T14:39:46.162Z,8.10
2023-05-21T14:42:15.206Z,7.53
2023-05-21T14:44:41.810Z,7.25
2023-05-21T14:47:10.839Z,7.60
2023-05-21T14:49:37.447Z,7.28
2023-05-21T14:52:04.284Z,7.90
2023-05-21T14:54:30.926Z,8.27
2023-05-21T14:56:57.494Z,9.88
2023-05-21T14:59:28.959Z,9.07
2023-05-21T15:01:58.197Z,9.32
2023-05-21T15:04:24.789Z,7.45
2023-05-21T15:06:53.591Z,7.78
2023-05-21T15:09:20.461Z,7.70
2023-05-21T15:11:47.094Z,7.70
2023-05-21T15:14:13.687Z,8.18
2023-05-21T15:16:42.942Z,7.82
2023-05-21T15:19:12.020Z,8.25
2023-05-21T15:21:41.110Z,7.18
2023-05-21T15:24:07.698Z,7.53
2023-05-21T15:26:34.293Z,7.32
2023-05-21T15:29:00.924Z,7.43
2023-05-21T15:31:27.581Z,8.27
2023-05-21T15:33:54.230Z,9.52
2023-05-21T15:36:23.915Z,7.63
2023-05-21T15:38:53.064Z,7.53
2023-05-21T15:41:22.280Z,7.60
2023-05-21T15:43:48.934Z,8.07
2023-05-21T15:46:16.011Z,8.00
2023-05-21T15:48:42.722Z,8.43
2023-05-21T15:51:09.317Z,8.10
2023-05-21T15:53:35.910Z,9.88
2023-05-21T15:56:03.352Z,8.32
2023-05-21T15:58:31.206Z,8.45
2023-05-21T16:01:02.764Z,7.93
2023-05-21T16:03:29.351Z,8.18
2023-05-21T16:05:55.944Z,8.70
2023-05-21T16:08:24.953Z,8.25
2023-05-21T16:10:51.559Z,7.80
2023-05-21T16:13:18.163Z,7.90
2023-05-21T16:15:46.972Z,9.32
2023-05-21T16:18:16.098Z,7.55
2023-05-21T16:20:45.253Z,7.05
2023-05-21T16:23:14.220Z,7.25
2023-05-21T16:25:43.153Z,7.63
2023-05-21T16:28:09.886Z,7.25
2023-05-21T16:30:36.522Z,6.82
2023-05-21T16:33:05.946Z,7.60
2023-05-21T16:35:33.003Z,7.68
2023-05-21T16:38:01.932Z,8.07
2023-05-21T16:40:33.369Z,7.50
2023-05-21T16:43:02.413Z,6.32
2023-05-21T16:45:38.780Z,6.45
2023-05-21T16:48:06.161Z,6.93
2023-05-21T16:50:37.773Z,6.97
2023-05-21T16:53:06.099Z,6.63
2023-05-21T16:55:36.204Z,6.78
2023-05-21T16:58:05.138Z,14.32
2023-05-21T17:00:38.831Z,6.28
2023-05-21T17:03:05.705Z,8.53
2023-05-21T17:05:34.958Z,7.53
2023-05-21T17:08:07.567Z,7.63
2023-05-21T17:10:34.456Z,6.80
2023-05-21T17:13:17.592Z,5.35
2023-05-21T17:15:44.801Z,6.63
2023-05-21T17:18:12.270Z,5.78
2023-05-21T17:20:38.995Z,6.35
2023-05-21T17:23:05.624Z,5.57
2023-05-21T17:25:34.827Z,5.97
2023-05-21T17:28:04.191Z,5.13
2023-05-21T17:30:33.354Z,5.45
2023-05-21T17:33:01.951Z,5.00
2023-05-21T17:35:31.811Z,6.35
2023-05-21T17:37:58.426Z,6.43
2023-05-21T17:40:25.300Z,5.93
2023-05-21T17:42:52.809Z,5.43
2023-05-21T17:45:21.646Z,6.70
2023-05-21T17:47:50.781Z,5.85
2023-05-21T17:50:17.470Z,6.00
2023-05-21T17:52:44.074Z,6.20
2023-05-21T17:55:13.047Z,6.68
2023-05-21T17:57:39.651Z,5.82
2023-05-21T18:00:07.094Z,5.32
2023-05-21T18:02:33.797Z,5.70
2023-05-21T18:05:02.610Z,6.23
2023-05-21T18:07:29.170Z,6.93
2023-05-21T18:09:55.812Z,6.60
2023-05-21T18:12:22.353Z,6.53
2023-05-21T18:14:51.216Z,7.43
2023-05-21T18:17:18.984Z,5.27
2023-05-21T18:19:45.730Z,8.23
2023-05-21T18:22:12.353Z,6.40
2023-05-21T18:24:43.478Z,6.45
2023-05-21T18:27:13.558Z,6.70
2023-05-21T18:29:43.305Z,6.60
2023-05-21T18:32:12.670Z,6.75
2023-05-21T18:34:39.399Z,6.65
2023-05-21T18:37:06.753Z,7.38
2023-05-21T18:39:33.339Z,7.47
2023-05-21T18:42:12.320Z,7.40
2023-05-21T18:44:46.026Z,8.65
2023-05-21T18:47:15.866Z,7.70
2023-05-21T18:49:45.006Z,7.68
2023-05-21T18:52:14.138Z,6.95
2023-05-21T18:54:40.853Z,6.97
2023-05-21T18:57:13.560Z,7.50
2023-05-21T18:59:43.148Z,7.30
2023-05-21T19:02:09.953Z,8.45
2023-05-21T19:04:36.649Z,7.25
2023-05-21T19:07:03.915Z,8.10
2023-05-21T19:09:30.705Z,7.40
2023-05-21T19:12:00.576Z,10.50
2023-05-21T19:14:27.192Z,11.43
2023-05-21T19:16:53.739Z,9.60
2023-05-21T19:19:20.539Z,6.67
2023-05-21T19:21:49.763Z,8.30
2023-05-21T19:24:18.692Z,7.15
2023-05-21T19:26:48.277Z,7.65
2023-05-21T19:29:19.428Z,6.82
2023-05-21T19:31:48.263Z,7.30
2023-05-21T19:34:14.894Z,7.97
2023-05-21T19:36:52.106Z,7.20
2023-05-21T19:39:20.265Z,7.80
2023-05-21T19:41:46.946Z,6.60
2023-05-21T19:44:13.715Z,8.93
2023-05-21T19:46:42.833Z,7.43
2023-05-21T19:49:14.077Z,8.75
2023-05-21T19:51:43.330Z,7.85
2023-05-21T19:54:12.300Z,8.23
2023-05-21T19:56:41.548Z,7.97
2023-05-21T19:59:08.113Z,7.93
2023-05-21T20:01:39.700Z,7.68
2023-05-21T20:04:08.832Z,8.98
2023-05-21T20:06:38.206Z,7.70
2023-05-21T20:09:08.585Z,7.40
2023-05-21T20:11:36.121Z,9.15
2023-05-21T20:14:02.843Z,7.47
2023-05-21T20:16:30.075Z,7.15
2023-05-21T20:19:01.650Z,7.93
2023-05-21T20:21:30.226Z,8.30
2023-05-21T20:23:56.910Z,8.93
2023-05-21T20:26:23.472Z,8.82
2023-05-21T20:28:50.096Z,7.60
2023-05-21T20:31:19.100Z,9.43
2023-05-21T20:33:46.354Z,9.10
2023-05-21T20:36:15.289Z,8.32
2023-05-21T20:38:47.195Z,8.23
2023-05-21T20:41:14.218Z,7.88
2023-05-21T20:43:45.457Z,8.13
2023-05-21T20:46:17.287Z,8.20
2023-05-21T20:48:43.959Z,8.38
2023-05-21T20:51:10.583Z,8.07
2023-05-21T20:53:37.174Z,8.30
2023-05-21T20:56:08.411Z,8.52
2023-05-21T20:58:35.007Z,8.73
2023-05-21T21:01:01.884Z,8.48
2023-05-21T21:03:29.906Z,9.32
2023-05-21T21:06:01.108Z,8.70
2023-05-21T21:08:27.810Z,9.02
2023-05-21T21:10:56.929Z,8.80
2023-05-21T21:13:23.536Z,8.80
2023-05-21T21:15:50.219Z,8.65
2023-05-21T21:18:19.189Z,9.98
2023-05-21T21:20:49.706Z,9.25
2023-05-21T21:23:16.658Z,8.70
2023-05-21T21:25:43.225Z,9.40
2023-05-21T21:28:10.733Z,8.40
2023-05-21T21:30:40.861Z,8.52
2023-05-21T21:33:08.327Z,8.82
2023-05-21T21:35:38.758Z,10.07
2023-05-21T21:38:07.588Z,9.85
2023-05-21T21:40:34.261Z,10.73
2023-05-21T21:43:03.321Z,8.73
2023-05-21T21:45:32.313Z,8.82
2023-05-21T21:47:58.993Z,8.17
2023-05-21T21:50:27.867Z,8.32
2023-05-21T21:52:56.050Z,8.50
2023-05-21T21:55:22.725Z,8.85
2023-05-21T21:57:49.898Z,8.48
2023-05-21T22:00:19.440Z,10.07
2023-05-21T22:02:46.694Z,10.30
2023-05-21T22:05:14.865Z,8.68
2023-05-21T22:07:47.994Z,8.70
2023-05-21T22:10:16.145Z,10.00
2023-05-21T22:12:43.970Z,8.93
2023-05-21T22:15:28.613Z,9.32
2023-05-21T22:17:58.821Z,10.18
2023-05-21T22:20:31.089Z,8.55
2023-05-21T22:23:02.737Z,9.07
2023-05-21T22:25:29.369Z,9.40
2023-05-21T22:28:03.557Z,9.93
2023-05-21T22:30:35.105Z,10.45
2023-05-21T22:33:01.869Z,10.55
2023-05-21T22:35:30.768Z,9.50
2023-05-21T22:37:58.705Z,9.17
2023-05-21T22:40:25.456Z,9.05
2023-05-21T22:42:54.228Z,10.70
2023-05-21T22:45:26.437Z,10.57
2023-05-21T22:47:56.563Z,11.25
2023-05-21T22:50:25.319Z,9.40
2023-05-21T22:52:51.958Z,10.40
2023-05-21T22:55:21.055Z,11.60
2023-05-21T22:57:49.833Z,10.48
2023-05-21T23:00:19.270Z,9.70
2023-05-21T23:02:51.400Z,10.63
2023-05-21T23:05:19.812Z,9.65
2023-05-21T23:07:48.707Z,10.82
2023-05-21T23:10:15.389Z,10.45
2023-05-21T23:12:44.466Z,12.48
2023-05-21T23:15:11.341Z,13.03
2023-05-21T23:17:41.138Z,8.93
2023-05-21T23:20:13.202Z,9.30
2023-05-21T23:22:42.052Z,10.18
2023-05-21T23:25:11.382Z,11.60
2023-05-21T23:27:37.991Z,10.70
2023-05-21T23:30:05.265Z,10.30
2023-05-21T23:32:31.921Z,9.18
2023-05-21T23:34:58.496Z,10.48
2023-05-21T23:37:25.220Z,10.80
2023-05-21T23:39:54.118Z,10.07
2023-05-21T23:42:23.354Z,10.10
2023-05-21T23:44:49.992Z,10.30
2023-05-21T23:47:16.607Z,9.98
2023-05-21T23:49:43.270Z,9.00
2023-05-21T23:52:09.915Z,9.53
2023-05-21T23:54:39.221Z,9.43
2023-05-21T23:57:10.864Z,9.02
2023-05-21T23:59:37.483Z,8.52
